sensor_id;sensor_type;location;lat;lon;timestamp;pressure;altitude;pressure_sealevel;temperature;humidity
13235;BME280;6683;48.506;9.050;2023-12-20T00:01:38;98171.50;;;9.05;74.94
13235;BME280;6683;48.506;9.050;2023-12-20T00:04:41;98162.78;;;9.04;75.25
13235;BME280;6683;48.506;9.050;2023-12-20T00:07:43;98169.50;;;9.07;75.44
13235;BME280;6683;48.506;9.050;2023-12-20T00:10:45;98169.31;;;9.08;75.10
13235;BME280;6683;48.506;9.050;2023-12-20T00:13:47;98162.44;;;9.07;74.93
13235;BME280;6683;48.506;9.050;2023-12-20T00:16:49;98160.59;;;9.08;75.14
13235;BME280;6683;48.506;9.050;2023-12-20T00:19:53;98149.44;;;9.06;74.83
13235;BME280;6683;48.506;9.050;2023-12-20T00:22:57;98148.78;;;9.04;75.08
13235;BME280;6683;48.506;9.050;2023-12-20T00:25:59;98143.53;;;9.04;75.11
13235;BME280;6683;48.506;9.050;2023-12-20T00:29:01;98150.78;;;9.02;75.04
13235;BME280;6683;48.506;9.050;2023-12-20T00:32:04;98152.78;;;9.00;75.21
13235;BME280;6683;48.506;9.050;2023-12-20T00:35:08;98138.13;;;8.97;75.11
13235;BME280;6683;48.506;9.050;2023-12-20T00:38:10;98136.88;;;8.93;75.26
13235;BME280;6683;48.506;9.050;2023-12-20T00:41:12;98129.97;;;8.92;75.34
13235;BME280;6683;48.506;9.050;2023-12-20T00:44:14;98123.06;;;8.91;75.45
13235;BME280;6683;48.506;9.050;2023-12-20T00:47:16;98112.53;;;8.91;75.48
13235;BME280;6683;48.506;9.050;2023-12-20T00:50:19;98112.38;;;8.93;75.51
13235;BME280;6683;48.506;9.050;2023-12-20T00:53:22;98117.00;;;8.91;75.38
13235;BME280;6683;48.506;9.050;2023-12-20T00:56:24;98114.38;;;8.91;75.40
13235;BME280;6683;48.506;9.050;2023-12-20T00:59:26;98120.91;;;8.95;75.54
13235;BME280;6683;48.506;9.050;2023-12-20T01:02:28;98126.00;;;8.96;75.47
13235;BME280;6683;48.506;9.050;2023-12-20T01:05:31;98130.09;;;8.99;75.10
13235;BME280;6683;48.506;9.050;2023-12-20T01:08:33;98136.16;;;8.99;75.33
13235;BME280;6683;48.506;9.050;2023-12-20T01:11:36;98141.06;;;9.02;75.13
13235;BME280;6683;48.506;9.050;2023-12-20T01:14:38;98153.41;;;9.02;75.38
13235;BME280;6683;48.506;9.050;2023-12-20T01:17:41;98151.59;;;9.02;75.30
13235;BME280;6683;48.506;9.050;2023-12-20T01:20:44;98156.53;;;9.05;75.34
13235;BME280;6683;48.506;9.050;2023-12-20T01:23:46;98149.09;;;9.09;75.60
13235;BME280;6683;48.506;9.050;2023-12-20T01:26:48;98153.00;;;9.13;75.67
13235;BME280;6683;48.506;9.050;2023-12-20T01:29:50;98149.19;;;9.15;75.75
13235;BME280;6683;48.506;9.050;2023-12-20T01:32:52;98150.66;;;9.18;75.43
13235;BME280;6683;48.506;9.050;2023-12-20T01:35:56;98152.09;;;9.20;75.57
13235;BME280;6683;48.506;9.050;2023-12-20T01:38:58;98158.00;;;9.22;75.22
13235;BME280;6683;48.506;9.050;2023-12-20T01:42:00;98163.25;;;9.22;75.41
13235;BME280;6683;48.506;9.050;2023-12-20T01:45:04;98164.28;;;9.21;75.03
13235;BME280;6683;48.506;9.050;2023-12-20T01:48:07;98161.81;;;9.20;74.93
13235;BME280;6683;48.506;9.050;2023-12-20T01:51:11;98167.25;;;9.18;75.08
13235;BME280;6683;48.506;9.050;2023-12-20T01:54:13;98164.81;;;9.17;74.84
13235;BME280;6683;48.506;9.050;2023-12-20T01:57:15;98166.81;;;9.15;75.07
13235;BME280;6683;48.506;9.050;2023-12-20T02:00:18;98162.88;;;9.11;74.63
13235;BME280;6683;48.506;9.050;2023-12-20T02:03:24;98161.59;;;9.07;74.87
13235;BME280;6683;48.506;9.050;2023-12-20T02:06:30;98155.06;;;9.03;75.03
13235;BME280;6683;48.506;9.050;2023-12-20T02:09:32;98156.41;;;8.99;74.90
13235;BME280;6683;48.506;9.050;2023-12-20T02:12:34;98149.88;;;8.95;75.16
13235;BME280;6683;48.506;9.050;2023-12-20T02:15:37;98138.22;;;8.89;75.06
13235;BME280;6683;48.506;9.050;2023-12-20T02:18:39;98137.56;;;8.87;75.30
13235;BME280;6683;48.506;9.050;2023-12-20T02:21:43;98131.66;;;8.85;75.47
13235;BME280;6683;48.506;9.050;2023-12-20T02:24:45;98135.47;;;8.82;75.44
13235;BME280;6683;48.506;9.050;2023-12-20T02:27:48;98132.03;;;8.82;75.57
13235;BME280;6683;48.506;9.050;2023-12-20T02:30:50;98135.47;;;8.82;75.64
13235;BME280;6683;48.506;9.050;2023-12-20T02:33:52;98129.22;;;8.83;75.61
13235;BME280;6683;48.506;9.050;2023-12-20T02:36:56;98133.31;;;8.86;75.39
13235;BME280;6683;48.506;9.050;2023-12-20T02:39:59;98137.75;;;8.85;75.33
13235;BME280;6683;48.506;9.050;2023-12-20T02:43:01;98137.13;;;8.83;75.20
13235;BME280;6683;48.506;9.050;2023-12-20T02:46:03;98134.03;;;8.80;75.34
13235;BME280;6683;48.506;9.050;2023-12-20T02:49:06;98125.50;;;8.78;75.46
13235;BME280;6683;48.506;9.050;2023-12-20T02:52:10;98126.47;;;8.77;75.64
13235;BME280;6683;48.506;9.050;2023-12-20T02:55:12;98129.94;;;8.77;75.54
13235;BME280;6683;48.506;9.050;2023-12-20T02:58:14;98122.88;;;8.78;75.59
13235;BME280;6683;48.506;9.050;2023-12-20T03:01:16;98124.66;;;8.77;75.45
13235;BME280;6683;48.506;9.050;2023-12-20T03:04:18;98129.94;;;8.77;75.68
13235;BME280;6683;48.506;9.050;2023-12-20T03:07:22;98129.94;;;8.77;75.56
13235;BME280;6683;48.506;9.050;2023-12-20T03:10:24;98142.06;;;8.78;75.34
13235;BME280;6683;48.506;9.050;2023-12-20T03:13:26;98143.09;;;8.77;75.61
13235;BME280;6683;48.506;9.050;2023-12-20T03:16:28;98139.44;;;8.78;75.55
13235;BME280;6683;48.506;9.050;2023-12-20T03:19:30;98141.09;;;8.79;75.52
13235;BME280;6683;48.506;9.050;2023-12-20T03:22:33;98143.09;;;8.77;75.48
13235;BME280;6683;48.506;9.050;2023-12-20T03:25:36;98147.34;;;8.78;75.55
13235;BME280;6683;48.506;9.050;2023-12-20T03:28:38;98150.81;;;8.79;75.50
13235;BME280;6683;48.506;9.050;2023-12-20T03:31:40;98156.44;;;8.76;75.58
13235;BME280;6683;48.506;9.050;2023-12-20T03:34:42;98162.84;;;8.73;75.64
13235;BME280;6683;48.506;9.050;2023-12-20T03:37:46;98154.66;;;8.68;75.44
13235;BME280;6683;48.506;9.050;2023-12-20T03:40:48;98164.19;;;8.69;75.72
13235;BME280;6683;48.506;9.050;2023-12-20T03:43:50;98165.00;;;8.70;75.76
13235;BME280;6683;48.506;9.050;2023-12-20T03:46:52;98173.53;;;8.72;76.08
13235;BME280;6683;48.506;9.050;2023-12-20T03:49:54;98177.00;;;8.72;75.89
13235;BME280;6683;48.506;9.050;2023-12-20T03:52:57;98178.66;;;8.73;75.77
13235;BME280;6683;48.506;9.050;2023-12-20T03:56:00;98180.13;;;8.76;76.05
13235;BME280;6683;48.506;9.050;2023-12-20T03:59:02;98186.16;;;8.76;75.58
13235;BME280;6683;48.506;9.050;2023-12-20T04:02:04;98174.22;;;8.74;75.89
13235;BME280;6683;48.506;9.050;2023-12-20T04:05:08;98186.34;;;8.75;75.98
13235;BME280;6683;48.506;9.050;2023-12-20T04:08:12;98182.91;;;8.74;76.03
13235;BME280;6683;48.506;9.050;2023-12-20T04:11:14;98189.00;;;8.75;75.81
13235;BME280;6683;48.506;9.050;2023-12-20T04:14:16;98191.63;;;8.75;75.70
13235;BME280;6683;48.506;9.050;2023-12-20T04:17:18;98195.91;;;8.76;75.82
13235;BME280;6683;48.506;9.050;2023-12-20T04:20:20;98200.34;;;8.75;75.80
13235;BME280;6683;48.506;9.050;2023-12-20T04:23:23;98208.22;;;8.75;75.71
13235;BME280;6683;48.506;9.050;2023-12-20T04:26:25;98206.44;;;8.76;75.68
13235;BME280;6683;48.506;9.050;2023-12-20T04:29:27;98211.69;;;8.76;75.75
13235;BME280;6683;48.506;9.050;2023-12-20T04:32:29;98205.59;;;8.75;75.86
13235;BME280;6683;48.506;9.050;2023-12-20T04:35:32;98204.13;;;8.73;75.75
13235;BME280;6683;48.506;9.050;2023-12-20T04:38:35;98197.41;;;8.70;75.82
13235;BME280;6683;48.506;9.050;2023-12-20T04:41:37;98194.78;;;8.70;75.89
13235;BME280;6683;48.506;9.050;2023-12-20T04:44:39;98201.03;;;8.69;75.73
13235;BME280;6683;48.506;9.050;2023-12-20T04:47:42;98198.56;;;8.68;75.78
13235;BME280;6683;48.506;9.050;2023-12-20T04:50:44;98213.56;;;8.67;75.92
13235;BME280;6683;48.506;9.050;2023-12-20T04:53:48;98211.91;;;8.66;75.96
13235;BME280;6683;48.506;9.050;2023-12-20T04:56:50;98211.25;;;8.64;75.74
13235;BME280;6683;48.506;9.050;2023-12-20T04:59:52;98218.50;;;8.62;75.91
13235;BME280;6683;48.506;9.050;2023-12-20T05:02:54;98221.31;;;8.61;76.00
13235;BME280;6683;48.506;9.050;2023-12-20T05:05:56;98214.59;;;8.58;76.04
13235;BME280;6683;48.506;9.050;2023-12-20T05:09:00;98220.03;;;8.57;75.82
13235;BME280;6683;48.506;9.050;2023-12-20T05:12:03;98220.19;;;8.55;76.00
13235;BME280;6683;48.506;9.050;2023-12-20T05:15:06;98231.72;;;8.54;75.91
13235;BME280;6683;48.506;9.050;2023-12-20T05:18:09;98238.78;;;8.54;75.97
13235;BME280;6683;48.506;9.050;2023-12-20T05:21:11;98231.88;;;8.53;76.01
13235;BME280;6683;48.506;9.050;2023-12-20T05:24:14;98234.84;;;8.50;76.12
13235;BME280;6683;48.506;9.050;2023-12-20T05:27:17;98242.56;;;8.51;76.15
13235;BME280;6683;48.506;9.050;2023-12-20T05:30:19;98257.56;;;8.51;76.21
13235;BME280;6683;48.506;9.050;2023-12-20T05:33:21;98267.06;;;8.52;76.07
13235;BME280;6683;48.506;9.050;2023-12-20T05:36:23;98263.59;;;8.51;76.02
13235;BME280;6683;48.506;9.050;2023-12-20T05:39:26;98263.13;;;8.48;75.79
13235;BME280;6683;48.506;9.050;2023-12-20T05:42:28;98276.28;;;8.48;76.11
13235;BME280;6683;48.506;9.050;2023-12-20T05:45:30;98272.19;;;8.45;75.88
13235;BME280;6683;48.506;9.050;2023-12-20T05:48:32;98279.28;;;8.45;76.08
13235;BME280;6683;48.506;9.050;2023-12-20T05:51:34;98276.66;;;8.45;76.08
13235;BME280;6683;48.506;9.050;2023-12-20T05:54:38;98279.28;;;8.45;76.06
13235;BME280;6683;48.506;9.050;2023-12-20T05:57:40;98270.56;;;8.44;76.22
13235;BME280;6683;48.506;9.050;2023-12-20T06:00:44;98282.88;;;8.44;76.25
13235;BME280;6683;48.506;9.050;2023-12-20T06:03:46;98287.97;;;8.45;76.06
13235;BME280;6683;48.506;9.050;2023-12-20T06:06:48;98285.34;;;8.45;76.34
13235;BME280;6683;48.506;9.050;2023-12-20T06:09:51;98287.81;;;8.47;76.26
13235;BME280;6683;48.506;9.050;2023-12-20T06:12:53;98291.91;;;8.49;76.40
13235;BME280;6683;48.506;9.050;2023-12-20T06:15:57;98292.72;;;8.50;76.18
13235;BME280;6683;48.506;9.050;2023-12-20T06:18:59;98302.41;;;8.49;76.21
13235;BME280;6683;48.506;9.050;2023-12-20T06:22:01;98303.25;;;8.50;75.89
13235;BME280;6683;48.506;9.050;2023-12-20T06:25:06;98303.41;;;8.48;75.82
13235;BME280;6683;48.506;9.050;2023-12-20T06:28:08;98300.16;;;8.46;75.88
13235;BME280;6683;48.506;9.050;2023-12-20T06:31:11;98287.31;;;8.43;75.93
13235;BME280;6683;48.506;9.050;2023-12-20T06:34:13;98285.69;;;8.42;76.20
13235;BME280;6683;48.506;9.050;2023-12-20T06:37:15;98295.22;;;8.43;76.11
13235;BME280;6683;48.506;9.050;2023-12-20T06:40:19;98300.66;;;8.42;76.16
13235;BME280;6683;48.506;9.050;2023-12-20T06:43:21;98304.09;;;8.42;75.75
13235;BME280;6683;48.506;9.050;2023-12-20T06:46:23;98309.69;;;8.39;75.84
13235;BME280;6683;48.506;9.050;2023-12-20T06:49:25;98315.97;;;8.38;76.00
13235;BME280;6683;48.506;9.050;2023-12-20T06:52:28;98316.75;;;8.39;75.95
13235;BME280;6683;48.506;9.050;2023-12-20T06:55:31;98309.88;;;8.38;75.94
13235;BME280;6683;48.506;9.050;2023-12-20T06:58:33;98312.50;;;8.38;75.96
13235;BME280;6683;48.506;9.050;2023-12-20T07:01:36;98318.59;;;8.38;75.82
13235;BME280;6683;48.506;9.050;2023-12-20T07:04:39;98324.81;;;8.37;76.09
13235;BME280;6683;48.506;9.050;2023-12-20T07:07:42;98336.16;;;8.38;75.89
13235;BME280;6683;48.506;9.050;2023-12-20T07:10:45;98339.78;;;8.37;75.78
13235;BME280;6683;48.506;9.050;2023-12-20T07:13:47;98336.16;;;8.38;75.79
13235;BME280;6683;48.506;9.050;2023-12-20T07:16:50;98337.16;;;8.37;75.94
13235;BME280;6683;48.506;9.050;2023-12-20T07:19:52;98345.88;;;8.37;76.16
13235;BME280;6683;48.506;9.050;2023-12-20T07:22:54;98346.69;;;8.38;75.82
13235;BME280;6683;48.506;9.050;2023-12-20T07:25:58;98351.13;;;8.37;76.00
13235;BME280;6683;48.506;9.050;2023-12-20T07:29:00;98353.75;;;8.37;76.15
13235;BME280;6683;48.506;9.050;2023-12-20T07:32:02;98358.03;;;8.38;76.02
13235;BME280;6683;48.506;9.050;2023-12-20T07:35:05;98366.59;;;8.40;76.04
13235;BME280;6683;48.506;9.050;2023-12-20T07:38:07;98380.53;;;8.41;76.16
13235;BME280;6683;48.506;9.050;2023-12-20T07:41:11;98374.13;;;8.43;75.85
13235;BME280;6683;48.506;9.050;2023-12-20T07:44:13;98379.38;;;8.43;76.13
13235;BME280;6683;48.506;9.050;2023-12-20T07:47:16;98382.66;;;8.45;75.94
13235;BME280;6683;48.506;9.050;2023-12-20T07:50:22;98394.00;;;8.46;75.95
13235;BME280;6683;48.506;9.050;2023-12-20T07:53:24;98388.56;;;8.47;75.96
13235;BME280;6683;48.506;9.050;2023-12-20T07:56:28;98386.78;;;8.48;76.00
13235;BME280;6683;48.506;9.050;2023-12-20T07:59:30;98398.78;;;8.50;76.11
13235;BME280;6683;48.506;9.050;2023-12-20T08:02:32;98395.13;;;8.51;76.09
13235;BME280;6683;48.506;9.050;2023-12-20T08:05:34;98390.53;;;8.53;76.15
13235;BME280;6683;48.506;9.050;2023-12-20T08:08:36;98389.38;;;8.56;76.33
13235;BME280;6683;48.506;9.050;2023-12-20T08:11:41;98390.84;;;8.58;76.29
13235;BME280;6683;48.506;9.050;2023-12-20T08:14:46;98397.59;;;8.61;76.44
13235;BME280;6683;48.506;9.050;2023-12-20T08:17:48;98399.72;;;8.65;76.28
13235;BME280;6683;48.506;9.050;2023-12-20T08:20:51;98395.25;;;8.66;76.33
13235;BME280;6683;48.506;9.050;2023-12-20T08:23:54;98385.56;;;8.66;76.34
13235;BME280;6683;48.506;9.050;2023-12-20T08:26:58;98406.28;;;8.69;76.29
13235;BME280;6683;48.506;9.050;2023-12-20T08:30:00;98396.22;;;8.73;76.26
13235;BME280;6683;48.506;9.050;2023-12-20T08:33:03;98398.38;;;8.77;76.47
13235;BME280;6683;48.506;9.050;2023-12-20T08:36:06;98407.72;;;8.80;76.54
13235;BME280;6683;48.506;9.050;2023-12-20T08:39:08;98401.94;;;8.84;76.41
13235;BME280;6683;48.506;9.050;2023-12-20T08:42:11;98401.59;;;8.88;76.35
13235;BME280;6683;48.506;9.050;2023-12-20T08:45:14;98406.38;;;8.92;76.51
13235;BME280;6683;48.506;9.050;2023-12-20T08:48:16;98398.28;;;8.94;76.45
13235;BME280;6683;48.506;9.050;2023-12-20T08:51:18;98403.22;;;8.97;76.59
13235;BME280;6683;48.506;9.050;2023-12-20T08:54:20;98411.59;;;9.00;76.39
13235;BME280;6683;48.506;9.050;2023-12-20T08:57:23;98436.59;;;9.04;76.83
13235;BME280;6683;48.506;9.050;2023-12-20T09:00:26;98428.34;;;9.07;76.74
13235;BME280;6683;48.506;9.050;2023-12-20T09:03:28;98430.81;;;9.09;76.63
13235;BME280;6683;48.506;9.050;2023-12-20T09:06:30;98440.84;;;9.13;76.50
13235;BME280;6683;48.506;9.050;2023-12-20T09:09:32;98444.91;;;9.16;76.55
13235;BME280;6683;48.506;9.050;2023-12-20T09:12:36;98448.38;;;9.16;76.66
13235;BME280;6683;48.506;9.050;2023-12-20T09:15:40;98447.41;;;9.17;76.62
13235;BME280;6683;48.506;9.050;2023-12-20T09:18:43;98455.31;;;9.17;76.40
13235;BME280;6683;48.506;9.050;2023-12-20T09:21:45;98453.81;;;9.15;76.03
13235;BME280;6683;48.506;9.050;2023-12-20T09:24:47;98458.78;;;9.10;76.28
13235;BME280;6683;48.506;9.050;2023-12-20T09:27:50;98458.13;;;9.08;76.36
13235;BME280;6683;48.506;9.050;2023-12-20T09:30:53;98464.41;;;9.07;76.00
13235;BME280;6683;48.506;9.050;2023-12-20T09:33:55;98451.56;;;9.04;76.08
13235;BME280;6683;48.506;9.050;2023-12-20T09:36:57;98461.63;;;9.00;76.36
13235;BME280;6683;48.506;9.050;2023-12-20T09:39:59;98465.22;;;8.99;76.23
13235;BME280;6683;48.506;9.050;2023-12-20T09:43:04;98459.97;;;8.99;76.42
13235;BME280;6683;48.506;9.050;2023-12-20T09:46:12;98453.91;;;8.99;76.56
13235;BME280;6683;48.506;9.050;2023-12-20T09:49:19;98466.56;;;9.03;76.71
13235;BME280;6683;48.506;9.050;2023-12-20T09:52:22;98467.19;;;9.05;76.39
13235;BME280;6683;48.506;9.050;2023-12-20T09:55:26;98468.00;;;9.06;76.56
13235;BME280;6683;48.506;9.050;2023-12-20T09:58:31;98461.75;;;9.07;76.61
13235;BME280;6683;48.506;9.050;2023-12-20T10:01:34;98470.97;;;9.11;76.72
13235;BME280;6683;48.506;9.050;2023-12-20T10:04:37;98472.25;;;9.15;76.94
13235;BME280;6683;48.506;9.050;2023-12-20T10:07:39;98473.88;;;9.24;76.81
13235;BME280;6683;48.506;9.050;2023-12-20T10:10:41;98462.91;;;9.43;77.91
13235;BME280;6683;48.506;9.050;2023-12-20T10:13:45;98462.34;;;9.86;78.53
13235;BME280;6683;48.506;9.050;2023-12-20T10:16:49;98453.88;;;10.36;78.32
13235;BME280;6683;48.506;9.050;2023-12-20T10:19:51;98454.22;;;10.85;78.51
13235;BME280;6683;48.506;9.050;2023-12-20T10:22:54;98452.38;;;11.29;78.30
13235;BME280;6683;48.506;9.050;2023-12-20T10:25:57;98453.31;;;11.72;77.94
13235;BME280;6683;48.506;9.050;2023-12-20T10:29:01;98447.44;;;11.91;76.68
13235;BME280;6683;48.506;9.050;2023-12-20T10:32:23;98436.72;;;11.99;76.92
13235;BME280;6683;48.506;9.050;2023-12-20T10:35:25;98428.94;;;12.19;77.02
13235;BME280;6683;48.506;9.050;2023-12-20T10:38:27;98415.88;;;12.38;77.25
13235;BME280;6683;48.506;9.050;2023-12-20T10:41:32;98416.19;;;12.56;76.63
13235;BME280;6683;48.506;9.050;2023-12-20T10:44:37;98410.88;;;12.84;77.46
13235;BME280;6683;48.506;9.050;2023-12-20T10:47:40;98406.75;;;13.09;76.89
13235;BME280;6683;48.506;9.050;2023-12-20T10:50:44;98401.66;;;13.08;75.87
13235;BME280;6683;48.506;9.050;2023-12-20T10:53:48;98402.34;;;13.29;76.92
13235;BME280;6683;48.506;9.050;2023-12-20T10:56:52;98402.00;;;13.52;76.21
13235;BME280;6683;48.506;9.050;2023-12-20T11:00:39;98403.72;;;13.79;77.24
13235;BME280;6683;48.506;9.050;2023-12-20T11:03:46;98410.09;;;14.11;76.24
13235;BME280;6683;48.506;9.050;2023-12-20T11:06:54;98406.03;;;14.34;75.64
13235;BME280;6683;48.506;9.050;2023-12-20T11:10:17;98400.13;;;14.39;75.35
13235;BME280;6683;48.506;9.050;2023-12-20T11:13:23;98409.50;;;14.41;73.89
13235;BME280;6683;48.506;9.050;2023-12-20T11:16:31;98401.53;;;14.22;73.61
13235;BME280;6683;48.506;9.050;2023-12-20T11:19:38;98393.59;;;14.28;74.37
13235;BME280;6683;48.506;9.050;2023-12-20T11:22:52;98396.22;;;14.22;72.73
13235;BME280;6683;48.506;9.050;2023-12-20T11:25:56;98394.75;;;13.87;71.22
13235;BME280;6683;48.506;9.050;2023-12-20T11:29:30;98391.00;;;13.48;71.98
13235;BME280;6683;48.506;9.050;2023-12-20T11:32:34;98391.38;;;13.39;72.70
13235;BME280;6683;48.506;9.050;2023-12-20T11:35:37;98383.88;;;13.55;73.72
13235;BME280;6683;48.506;9.050;2023-12-20T11:38:54;98385.78;;;13.88;74.37
13235;BME280;6683;48.506;9.050;2023-12-20T11:42:04;98384.97;;;14.00;73.36
13235;BME280;6683;48.506;9.050;2023-12-20T11:45:09;98383.53;;;14.04;72.13
13235;BME280;6683;48.506;9.050;2023-12-20T11:48:14;98390.47;;;13.86;71.15
13235;BME280;6683;48.506;9.050;2023-12-20T11:51:16;98383.09;;;13.61;70.59
13235;BME280;6683;48.506;9.050;2023-12-20T11:54:18;98394.41;;;13.29;69.83
13235;BME280;6683;48.506;9.050;2023-12-20T11:57:20;98393.41;;;12.96;70.21
13235;BME280;6683;48.506;9.050;2023-12-20T12:00:23;98401.59;;;12.67;70.37
13235;BME280;6683;48.506;9.050;2023-12-20T12:03:26;98402.00;;;12.36;70.09
13235;BME280;6683;48.506;9.050;2023-12-20T12:06:28;98394.44;;;12.06;70.25
13235;BME280;6683;48.506;9.050;2023-12-20T12:09:30;98391.75;;;11.78;70.46
13235;BME280;6683;48.506;9.050;2023-12-20T12:12:32;98384.75;;;11.56;70.62
13235;BME280;6683;48.506;9.050;2023-12-20T12:15:35;98385.56;;;11.35;71.44
13235;BME280;6683;48.506;9.050;2023-12-20T12:18:39;98392.88;;;11.18;71.63
13235;BME280;6683;48.506;9.050;2023-12-20T12:21:42;98401.84;;;11.03;71.36
13235;BME280;6683;48.506;9.050;2023-12-20T12:24:46;98393.94;;;10.88;71.90
13235;BME280;6683;48.506;9.050;2023-12-20T12:27:48;98396.59;;;10.74;71.93
13235;BME280;6683;48.506;9.050;2023-12-20T12:30:59;98395.13;;;10.57;71.95
13235;BME280;6683;48.506;9.050;2023-12-20T12:34:02;98394.94;;;10.43;72.21
13235;BME280;6683;48.506;9.050;2023-12-20T12:37:05;98392.13;;;10.30;72.01
13235;BME280;6683;48.506;9.050;2023-12-20T12:40:09;98388.44;;;10.17;72.48
13235;BME280;6683;48.506;9.050;2023-12-20T12:43:12;98385.69;;;10.10;72.78
13235;BME280;6683;48.506;9.050;2023-12-20T12:46:14;98378.47;;;10.04;72.72
13235;BME280;6683;48.506;9.050;2023-12-20T12:49:18;98392.38;;;9.98;73.07
13235;BME280;6683;48.506;9.050;2023-12-20T12:52:20;98393.72;;;9.94;72.95
13235;BME280;6683;48.506;9.050;2023-12-20T12:55:23;98382.72;;;9.91;73.27
13235;BME280;6683;48.506;9.050;2023-12-20T12:58:25;98384.88;;;9.87;73.04
13235;BME280;6683;48.506;9.050;2023-12-20T13:01:27;98381.97;;;9.82;73.40
13235;BME280;6683;48.506;9.050;2023-12-20T13:04:30;98374.56;;;9.78;73.07
13235;BME280;6683;48.506;9.050;2023-12-20T13:07:32;98375.94;;;9.74;73.29
13235;BME280;6683;48.506;9.050;2023-12-20T13:10:34;98367.19;;;9.73;73.34
13235;BME280;6683;48.506;9.050;2023-12-20T13:13:36;98373.28;;;9.74;73.62
13235;BME280;6683;48.506;9.050;2023-12-20T13:16:38;98361.91;;;9.73;73.63
13235;BME280;6683;48.506;9.050;2023-12-20T13:19:42;98359.94;;;9.75;74.04
13235;BME280;6683;48.506;9.050;2023-12-20T13:22:45;98353.50;;;9.78;74.42
13235;BME280;6683;48.506;9.050;2023-12-20T13:25:47;98347.03;;;9.80;73.86
13235;BME280;6683;48.506;9.050;2023-12-20T13:28:49;98344.22;;;9.82;74.07
13235;BME280;6683;48.506;9.050;2023-12-20T13:31:51;98342.22;;;9.84;74.11
13235;BME280;6683;48.506;9.050;2023-12-20T13:34:55;98355.03;;;9.87;74.20
13235;BME280;6683;48.506;9.050;2023-12-20T13:37:57;98358.81;;;9.92;74.19
13235;BME280;6683;48.506;9.050;2023-12-20T13:40:59;98358.09;;;9.98;74.46
13235;BME280;6683;48.506;9.050;2023-12-20T13:44:01;98360.81;;;10.05;74.38
13235;BME280;6683;48.506;9.050;2023-12-20T13:47:04;98368.22;;;10.09;74.54
13235;BME280;6683;48.506;9.050;2023-12-20T13:50:09;98371.97;;;10.15;74.63
13235;BME280;6683;48.506;9.050;2023-12-20T13:53:11;98373.25;;;10.19;74.04
13235;BME280;6683;48.506;9.050;2023-12-20T13:56:15;98363.53;;;10.19;73.99
13235;BME280;6683;48.506;9.050;2023-12-20T13:59:17;98364.50;;;10.18;74.23
13235;BME280;6683;48.506;9.050;2023-12-20T14:02:19;98361.88;;;10.18;73.76
13235;BME280;6683;48.506;9.050;2023-12-20T14:05:22;98353.31;;;10.16;73.86
13235;BME280;6683;48.506;9.050;2023-12-20T14:08:24;98365.03;;;10.14;74.07
13235;BME280;6683;48.506;9.050;2023-12-20T14:11:27;98365.22;;;10.12;73.64
13235;BME280;6683;48.506;9.050;2023-12-20T14:14:29;98368.22;;;10.09;74.00
13235;BME280;6683;48.506;9.050;2023-12-20T14:17:31;98372.84;;;10.07;73.64
13235;BME280;6683;48.506;9.050;2023-12-20T14:20:35;98364.44;;;10.04;73.89
13235;BME280;6683;48.506;9.050;2023-12-20T14:23:40;98362.19;;;10.01;73.57
13235;BME280;6683;48.506;9.050;2023-12-20T14:26:42;98361.69;;;9.97;73.70
13235;BME280;6683;48.506;9.050;2023-12-20T14:29:44;98358.81;;;9.92;73.73
13235;BME280;6683;48.506;9.050;2023-12-20T14:32:46;98346.16;;;9.88;73.73
13235;BME280;6683;48.506;9.050;2023-12-20T14:35:50;98339.59;;;9.84;73.42
13235;BME280;6683;48.506;9.050;2023-12-20T14:38:53;98340.13;;;9.79;73.62
13235;BME280;6683;48.506;9.050;2023-12-20T14:41:55;98339.19;;;9.72;73.27
13235;BME280;6683;48.506;9.050;2023-12-20T14:44:57;98347.97;;;9.64;73.46
13235;BME280;6683;48.506;9.050;2023-12-20T14:47:59;98336.34;;;9.59;73.28
13235;BME280;6683;48.506;9.050;2023-12-20T14:51:03;98353.84;;;9.52;73.42
13235;BME280;6683;48.506;9.050;2023-12-20T14:54:05;98345.66;;;9.47;73.62
13235;BME280;6683;48.506;9.050;2023-12-20T14:57:10;98341.91;;;9.41;73.30
13235;BME280;6683;48.506;9.050;2023-12-20T15:00:12;98331.88;;;9.37;73.37
13235;BME280;6683;48.506;9.050;2023-12-20T15:03:16;98340.31;;;9.32;73.65
13235;BME280;6683;48.506;9.050;2023-12-20T15:06:20;98340.84;;;9.28;73.70
13235;BME280;6683;48.506;9.050;2023-12-20T15:09:23;98342.19;;;9.24;73.76
13235;BME280;6683;48.506;9.050;2023-12-20T15:12:25;98343.53;;;9.20;73.56
13235;BME280;6683;48.506;9.050;2023-12-20T15:15:27;98347.47;;;9.16;73.75
13235;BME280;6683;48.506;9.050;2023-12-20T15:18:31;98352.28;;;9.12;73.51
13235;BME280;6683;48.506;9.050;2023-12-20T15:21:34;98359.53;;;9.10;73.45
13235;BME280;6683;48.506;9.050;2023-12-20T15:24:41;98349.53;;;9.06;73.44
13235;BME280;6683;48.506;9.050;2023-12-20T15:27:44;98350.03;;;9.01;73.75
13235;BME280;6683;48.506;9.050;2023-12-20T15:30:46;98355.66;;;8.98;73.89
13235;BME280;6683;48.506;9.050;2023-12-20T15:33:49;98362.25;;;8.94;73.70
13235;BME280;6683;48.506;9.050;2023-12-20T15:36:52;98360.78;;;8.92;73.92
13235;BME280;6683;48.506;9.050;2023-12-20T15:39:54;98356.03;;;8.87;73.60
13235;BME280;6683;48.506;9.050;2023-12-20T15:42:56;98361.00;;;8.82;73.78
13235;BME280;6683;48.506;9.050;2023-12-20T15:46:00;98353.44;;;8.79;73.75
13235;BME280;6683;48.506;9.050;2023-12-20T15:49:02;98366.13;;;8.75;73.98
13235;BME280;6683;48.506;9.050;2023-12-20T15:52:06;98363.81;;;8.72;73.83
13235;BME280;6683;48.506;9.050;2023-12-20T15:55:08;98367.63;;;8.70;74.10
13235;BME280;6683;48.506;9.050;2023-12-20T15:58:10;98366.16;;;8.67;73.94
13235;BME280;6683;48.506;9.050;2023-12-20T16:01:12;98356.63;;;8.66;74.04
13235;BME280;6683;48.506;9.050;2023-12-20T16:04:14;98359.59;;;8.63;73.72
13235;BME280;6683;48.506;9.050;2023-12-20T16:07:18;98345.94;;;8.60;73.86
13235;BME280;6683;48.506;9.050;2023-12-20T16:10:20;98353.19;;;8.58;74.14
13235;BME280;6683;48.506;9.050;2023-12-20T16:13:22;98358.44;;;8.58;74.34
13235;BME280;6683;48.506;9.050;2023-12-20T16:16:24;98366.34;;;8.58;73.99
13235;BME280;6683;48.506;9.050;2023-12-20T16:19:26;98369.34;;;8.55;73.97
13235;BME280;6683;48.506;9.050;2023-12-20T16:22:30;98359.78;;;8.54;74.25
13235;BME280;6683;48.506;9.050;2023-12-20T16:25:33;98366.84;;;8.53;74.12
13235;BME280;6683;48.506;9.050;2023-12-20T16:28:38;98351.06;;;8.53;74.31
13235;BME280;6683;48.506;9.050;2023-12-20T16:31:40;98359.78;;;8.54;74.16
13235;BME280;6683;48.506;9.050;2023-12-20T16:34:42;98358.81;;;8.55;74.42